Aérodrome :
LOGIN :

S'inscrire | Disclaimer

   EN    FR    IT 

 










Légende :    VFR   VFR Marginal   IFR   IFR Intensif   IFR Très Intensif
Visi : 
Plafond : 
>= 8 km
>= 3000ft
5 à 8 km
1000 à 3000 ft
1500m à 5 km
500 à 1000 ft
800 à 1500m
200 à 500 ft
< 800m
< 200 ft
Symboles :   Orages  Brouillard  Fortes neiges  Fortes précipitations  Vent > 20 kt
SIGMETs :   Divers  Orages  Givrage  Turbulence  Onde Orograph.  Cendres Volcan.







- Altitude de l'aérodrome : -15 ft
- Code IATA : RTM


EHRD - Rotterdam Zestienhoven

DERNIER METAR :
  • 232255Z AUTO 23010KT 200V270 9999 FEW034 SCT040 18/17 Q1013 NOSIG

METARs EXPIRÉS :
  • 232225Z AUTO 24009KT 210V270 9999 BKN033 19/17 Q1013 NOSIG
  • 232155Z AUTO 24009KT 220V280 9999 NSC 19/17 Q1013 NOSIG
  • 232125Z AUTO 24010KT 210V270 9999 FEW009 SCT010 BKN030 19/17 Q1013 NOSIG
  • 232055Z AUTO 24010KT 210V270 9999 SCT010 19/17 Q1013 NOSIG
  • 232025Z AUTO 24012KT 9999 FEW012 BKN024 OVC027 19/17 Q1013 NOSIG

TAF TAF EHRD
Valide du 23 à 18h jusqu'au 25 à 00h UTC


231644Z 2318/2424 12010KT CAVOK
BECMG 2318/2320 24008KT
PROB30
TEMPO 2318/2322 25010G20KT 6000 SHRA SCT050CB
BECMG 2321/2324 28010KT BKN020
PROB40
TEMPO 2322/2402 4500 -DZ BKN008
BECMG 2408/2411 25014KT SCT025
BECMG 2416/2419 24008KT CAVOK
Pas de NOTAMs connus pour ce terrain.



MET'MAP, la Météo Aéronautique d'un coup d'oeil ! - Copyright ORBIFLY Décembre 2007 - Disclaimer

ORBIFLY MET'MAP TEAM :

Programmation & Développement : Alexandra Zaïnal
Conception & Développement : Baudouin d'Aumeries
Co-Programmation & Développement : Marc-Olivier Méhu
Soutien technique & logistique : Manuel Goepfert

Contact : metmap@orbifly.com




SOURCES & CREDITS :

   NOAA